Terminal Aerodrome Forecast
Issued by NWS

Home | Current Version | Previous Version | Text Only | Print | Product List | Glossary On
Versions: 1 2 3 4 5 6 7 8 9 10 11 12 13 14 15 16 17 18 19 20 21 22 23
000
FTUS43 KDDC 220533
TAFGCK
TAF
KGCK 220533Z 2206/2306 15016G30KT P6SM OVC010
     FM220900 16015KT 4SM BR OVC004
     FM221500 18017KT 4SM HZ OVC015
     FM221800 18021G29KT P6SM FEW150
     FM222100 17025KT P6SM OVC050 PROB30 2221/2224 P6SM TSRA
      BKN050CB
     FM230300 17019KT P6SM VCSH BKN015=

USA.gov is the U.S. government's official web portal to all federal, state and local government web resources and services.